sensor_id;sensor_type;location;lat;lon;timestamp;P1;durP1;ratioP1;P2;durP2;ratioP2
64938;SDS011;51453;47.738;7.420;2023-03-04T00:01:52;78.03;;;40.08;;
64938;SDS011;51453;47.738;7.420;2023-03-04T00:04:18;81.32;;;37.92;;
64938;SDS011;51453;47.738;7.420;2023-03-04T00:06:44;75.85;;;38.38;;
64938;SDS011;51453;47.738;7.420;2023-03-04T00:09:09;69.10;;;35.92;;
64938;SDS011;51453;47.738;7.420;2023-03-04T00:11:35;68.53;;;36.55;;
64938;SDS011;51453;47.738;7.420;2023-03-04T00:14:01;73.18;;;37.38;;
64938;SDS011;51453;47.738;7.420;2023-03-04T00:16:28;76.13;;;39.40;;
64938;SDS011;51453;47.738;7.420;2023-03-04T00:18:54;85.88;;;41.03;;
64938;SDS011;51453;47.738;7.420;2023-03-04T00:21:20;76.35;;;38.80;;
64938;SDS011;51453;47.738;7.420;2023-03-04T00:23:47;76.97;;;38.58;;
64938;SDS011;51453;47.738;7.420;2023-03-04T00:26:13;74.25;;;38.90;;
64938;SDS011;51453;47.738;7.420;2023-03-04T00:28:39;79.60;;;40.33;;
64938;SDS011;51453;47.738;7.420;2023-03-04T00:31:05;72.82;;;38.15;;
64938;SDS011;51453;47.738;7.420;2023-03-04T00:33:31;72.00;;;35.85;;
64938;SDS011;51453;47.738;7.420;2023-03-04T00:35:58;76.43;;;37.25;;
64938;SDS011;51453;47.738;7.420;2023-03-04T00:38:25;79.35;;;39.38;;
64938;SDS011;51453;47.738;7.420;2023-03-04T00:40:51;76.47;;;38.40;;
64938;SDS011;51453;47.738;7.420;2023-03-04T00:43:16;72.80;;;37.47;;
64938;SDS011;51453;47.738;7.420;2023-03-04T00:45:42;70.88;;;36.40;;
64938;SDS011;51453;47.738;7.420;2023-03-04T00:48:08;69.88;;;35.33;;
64938;SDS011;51453;47.738;7.420;2023-03-04T00:50:33;80.22;;;37.65;;
64938;SDS011;51453;47.738;7.420;2023-03-04T00:52:59;80.78;;;38.58;;
64938;SDS011;51453;47.738;7.420;2023-03-04T00:55:26;79.22;;;38.63;;
64938;SDS011;51453;47.738;7.420;2023-03-04T00:57:51;69.50;;;35.10;;
64938;SDS011;51453;47.738;7.420;2023-03-04T01:00:17;77.30;;;37.85;;
64938;SDS011;51453;47.738;7.420;2023-03-04T01:02:43;77.43;;;36.65;;
64938;SDS011;51453;47.738;7.420;2023-03-04T01:05:09;86.07;;;39.13;;
64938;SDS011;51453;47.738;7.420;2023-03-04T01:07:35;83.18;;;38.40;;
64938;SDS011;51453;47.738;7.420;2023-03-04T01:10:01;77.78;;;38.90;;
64938;SDS011;51453;47.738;7.420;2023-03-04T01:12:27;86.32;;;40.05;;
64938;SDS011;51453;47.738;7.420;2023-03-04T01:14:53;78.75;;;38.15;;
64938;SDS011;51453;47.738;7.420;2023-03-04T01:17:19;74.75;;;36.55;;
64938;SDS011;51453;47.738;7.420;2023-03-04T01:19:44;75.35;;;36.25;;
64938;SDS011;51453;47.738;7.420;2023-03-04T01:22:10;79.72;;;37.55;;
64938;SDS011;51453;47.738;7.420;2023-03-04T01:24:37;80.35;;;38.38;;
64938;SDS011;51453;47.738;7.420;2023-03-04T01:27:03;75.70;;;37.95;;
64938;SDS011;51453;47.738;7.420;2023-03-04T01:29:29;79.45;;;37.83;;
64938;SDS011;51453;47.738;7.420;2023-03-04T01:31:54;77.15;;;36.40;;
64938;SDS011;51453;47.738;7.420;2023-03-04T01:34:20;74.03;;;36.30;;
64938;SDS011;51453;47.738;7.420;2023-03-04T01:36:45;77.38;;;36.47;;
64938;SDS011;51453;47.738;7.420;2023-03-04T01:39:11;82.20;;;36.25;;
64938;SDS011;51453;47.738;7.420;2023-03-04T01:41:37;80.47;;;36.45;;
64938;SDS011;51453;47.738;7.420;2023-03-04T01:44:02;87.78;;;38.38;;
64938;SDS011;51453;47.738;7.420;2023-03-04T01:46:29;85.82;;;36.72;;
64938;SDS011;51453;47.738;7.420;2023-03-04T01:48:55;75.38;;;35.85;;
64938;SDS011;51453;47.738;7.420;2023-03-04T01:51:21;79.32;;;36.58;;
64938;SDS011;51453;47.738;7.420;2023-03-04T01:53:48;88.07;;;36.55;;
64938;SDS011;51453;47.738;7.420;2023-03-04T01:56:24;97.18;;;40.78;;
64938;SDS011;51453;47.738;7.420;2023-03-04T02:01:40;88.57;;;37.85;;
64938;SDS011;51453;47.738;7.420;2023-03-04T02:04:11;88.93;;;38.70;;
64938;SDS011;51453;47.738;7.420;2023-03-04T02:06:38;87.28;;;38.05;;
64938;SDS011;51453;47.738;7.420;2023-03-04T02:09:06;82.90;;;38.17;;
64938;SDS011;51453;47.738;7.420;2023-03-04T02:11:32;83.60;;;36.67;;
64938;SDS011;51453;47.738;7.420;2023-03-04T02:13:59;79.43;;;35.78;;
64938;SDS011;51453;47.738;7.420;2023-03-04T02:16:25;79.95;;;36.45;;
64938;SDS011;51453;47.738;7.420;2023-03-04T02:18:51;77.15;;;35.30;;
64938;SDS011;51453;47.738;7.420;2023-03-04T02:21:20;80.15;;;34.85;;
64938;SDS011;51453;47.738;7.420;2023-03-04T02:26:36;71.72;;;33.30;;
64938;SDS011;51453;47.738;7.420;2023-03-04T02:29:05;74.72;;;34.47;;
64938;SDS011;51453;47.738;7.420;2023-03-04T02:31:32;71.75;;;31.13;;
64938;SDS011;51453;47.738;7.420;2023-03-04T02:34:00;68.93;;;30.88;;
64938;SDS011;51453;47.738;7.420;2023-03-04T02:36:28;63.63;;;31.63;;
64938;SDS011;51453;47.738;7.420;2023-03-04T02:38:56;65.60;;;30.55;;
64938;SDS011;51453;47.738;7.420;2023-03-04T02:41:28;64.00;;;30.38;;
64938;SDS011;51453;47.738;7.420;2023-03-04T02:43:54;63.40;;;29.50;;
64938;SDS011;51453;47.738;7.420;2023-03-04T02:46:20;61.90;;;29.45;;
64938;SDS011;51453;47.738;7.420;2023-03-04T02:48:47;67.95;;;30.08;;
64938;SDS011;51453;47.738;7.420;2023-03-04T02:51:13;69.32;;;29.95;;
64938;SDS011;51453;47.738;7.420;2023-03-04T02:53:39;64.22;;;28.40;;
64938;SDS011;51453;47.738;7.420;2023-03-04T02:56:05;61.33;;;28.73;;
64938;SDS011;51453;47.738;7.420;2023-03-04T02:58:32;57.63;;;28.88;;
64938;SDS011;51453;47.738;7.420;2023-03-04T03:00:58;60.72;;;27.75;;
64938;SDS011;51453;47.738;7.420;2023-03-04T03:03:24;54.95;;;26.98;;
64938;SDS011;51453;47.738;7.420;2023-03-04T03:05:50;63.65;;;27.20;;
64938;SDS011;51453;47.738;7.420;2023-03-04T03:08:15;54.25;;;26.00;;
64938;SDS011;51453;47.738;7.420;2023-03-04T03:10:41;56.05;;;25.55;;
64938;SDS011;51453;47.738;7.420;2023-03-04T03:13:07;54.08;;;26.20;;
64938;SDS011;51453;47.738;7.420;2023-03-04T03:15:33;52.30;;;24.10;;
64938;SDS011;51453;47.738;7.420;2023-03-04T03:17:59;49.92;;;23.85;;
64938;SDS011;51453;47.738;7.420;2023-03-04T03:20:25;50.22;;;23.90;;
64938;SDS011;51453;47.738;7.420;2023-03-04T03:22:50;49.67;;;24.50;;
64938;SDS011;51453;47.738;7.420;2023-03-04T03:25:16;51.80;;;23.80;;
64938;SDS011;51453;47.738;7.420;2023-03-04T03:27:42;49.17;;;23.83;;
64938;SDS011;51453;47.738;7.420;2023-03-04T03:30:09;54.22;;;25.17;;
64938;SDS011;51453;47.738;7.420;2023-03-04T03:32:37;53.72;;;25.15;;
64938;SDS011;51453;47.738;7.420;2023-03-04T03:35:03;53.05;;;25.00;;
64938;SDS011;51453;47.738;7.420;2023-03-04T03:37:29;47.78;;;24.55;;
64938;SDS011;51453;47.738;7.420;2023-03-04T03:39:54;48.67;;;24.33;;
64938;SDS011;51453;47.738;7.420;2023-03-04T03:42:20;52.25;;;24.83;;
64938;SDS011;51453;47.738;7.420;2023-03-04T03:44:46;51.15;;;23.77;;
64938;SDS011;51453;47.738;7.420;2023-03-04T03:47:11;48.38;;;23.52;;
64938;SDS011;51453;47.738;7.420;2023-03-04T03:49:37;54.35;;;26.05;;
64938;SDS011;51453;47.738;7.420;2023-03-04T03:52:03;51.92;;;25.17;;
64938;SDS011;51453;47.738;7.420;2023-03-04T03:54:29;52.58;;;25.27;;
64938;SDS011;51453;47.738;7.420;2023-03-04T03:56:54;50.45;;;23.67;;
64938;SDS011;51453;47.738;7.420;2023-03-04T03:59:20;55.30;;;25.38;;
64938;SDS011;51453;47.738;7.420;2023-03-04T04:01:45;48.65;;;24.25;;
64938;SDS011;51453;47.738;7.420;2023-03-04T04:04:11;51.45;;;25.10;;
64938;SDS011;51453;47.738;7.420;2023-03-04T04:06:37;52.85;;;25.52;;
64938;SDS011;51453;47.738;7.420;2023-03-04T04:09:02;56.63;;;24.90;;
64938;SDS011;51453;47.738;7.420;2023-03-04T04:11:28;50.70;;;23.58;;
64938;SDS011;51453;47.738;7.420;2023-03-04T04:13:54;52.22;;;25.17;;
64938;SDS011;51453;47.738;7.420;2023-03-04T04:16:19;51.13;;;24.35;;
64938;SDS011;51453;47.738;7.420;2023-03-04T04:18:45;52.03;;;25.10;;
64938;SDS011;51453;47.738;7.420;2023-03-04T04:21:11;50.17;;;24.20;;
64938;SDS011;51453;47.738;7.420;2023-03-04T04:23:37;51.10;;;25.25;;
64938;SDS011;51453;47.738;7.420;2023-03-04T04:26:03;50.90;;;23.83;;
64938;SDS011;51453;47.738;7.420;2023-03-04T04:28:29;54.30;;;26.25;;
64938;SDS011;51453;47.738;7.420;2023-03-04T04:30:54;56.28;;;25.63;;
64938;SDS011;51453;47.738;7.420;2023-03-04T04:33:20;54.72;;;25.77;;
64938;SDS011;51453;47.738;7.420;2023-03-04T04:35:46;50.88;;;24.83;;
64938;SDS011;51453;47.738;7.420;2023-03-04T04:38:11;47.95;;;24.13;;
64938;SDS011;51453;47.738;7.420;2023-03-04T04:40:38;50.08;;;24.92;;
64938;SDS011;51453;47.738;7.420;2023-03-04T04:43:03;52.03;;;25.63;;
64938;SDS011;51453;47.738;7.420;2023-03-04T04:45:29;50.33;;;25.25;;
64938;SDS011;51453;47.738;7.420;2023-03-04T04:47:55;51.30;;;24.70;;
64938;SDS011;51453;47.738;7.420;2023-03-04T04:50:22;51.55;;;24.88;;
64938;SDS011;51453;47.738;7.420;2023-03-04T04:52:48;55.92;;;25.70;;
64938;SDS011;51453;47.738;7.420;2023-03-04T04:55:14;51.17;;;24.45;;
64938;SDS011;51453;47.738;7.420;2023-03-04T04:57:40;51.42;;;25.20;;
64938;SDS011;51453;47.738;7.420;2023-03-04T05:00:06;51.13;;;25.75;;
64938;SDS011;51453;47.738;7.420;2023-03-04T05:02:34;51.38;;;24.15;;
64938;SDS011;51453;47.738;7.420;2023-03-04T05:05:03;59.63;;;27.35;;
64938;SDS011;51453;47.738;7.420;2023-03-04T05:07:30;58.40;;;27.77;;
64938;SDS011;51453;47.738;7.420;2023-03-04T05:09:56;62.15;;;28.27;;
64938;SDS011;51453;47.738;7.420;2023-03-04T05:12:22;60.42;;;27.90;;
64938;SDS011;51453;47.738;7.420;2023-03-04T05:14:47;64.13;;;28.50;;
64938;SDS011;51453;47.738;7.420;2023-03-04T05:17:13;62.70;;;28.20;;
64938;SDS011;51453;47.738;7.420;2023-03-04T05:19:39;64.28;;;28.23;;
64938;SDS011;51453;47.738;7.420;2023-03-04T05:22:04;61.65;;;28.67;;
64938;SDS011;51453;47.738;7.420;2023-03-04T05:24:30;63.42;;;27.30;;
64938;SDS011;51453;47.738;7.420;2023-03-04T05:26:56;59.78;;;27.35;;
64938;SDS011;51453;47.738;7.420;2023-03-04T05:29:21;63.38;;;28.10;;
64938;SDS011;51453;47.738;7.420;2023-03-04T05:31:47;62.47;;;26.70;;
64938;SDS011;51453;47.738;7.420;2023-03-04T05:34:13;58.83;;;27.77;;
64938;SDS011;51453;47.738;7.420;2023-03-04T05:36:38;64.63;;;27.75;;
64938;SDS011;51453;47.738;7.420;2023-03-04T05:39:04;59.13;;;27.52;;
64938;SDS011;51453;47.738;7.420;2023-03-04T05:41:29;63.33;;;27.90;;
64938;SDS011;51453;47.738;7.420;2023-03-04T05:43:55;64.47;;;28.55;;
64938;SDS011;51453;47.738;7.420;2023-03-04T05:46:21;62.78;;;27.23;;
64938;SDS011;51453;47.738;7.420;2023-03-04T05:48:50;63.50;;;28.48;;
64938;SDS011;51453;47.738;7.420;2023-03-04T05:51:17;68.03;;;28.38;;
64938;SDS011;51453;47.738;7.420;2023-03-04T05:53:43;67.47;;;27.38;;
64938;SDS011;51453;47.738;7.420;2023-03-04T05:56:10;66.30;;;28.02;;
64938;SDS011;51453;47.738;7.420;2023-03-04T05:58:38;62.63;;;27.60;;
64938;SDS011;51453;47.738;7.420;2023-03-04T06:01:04;69.05;;;28.30;;
64938;SDS011;51453;47.738;7.420;2023-03-04T06:03:31;70.43;;;29.58;;
64938;SDS011;51453;47.738;7.420;2023-03-04T06:05:57;69.65;;;29.40;;
64938;SDS011;51453;47.738;7.420;2023-03-04T06:08:23;64.32;;;28.90;;
64938;SDS011;51453;47.738;7.420;2023-03-04T06:10:53;67.45;;;29.00;;
64938;SDS011;51453;47.738;7.420;2023-03-04T06:13:21;71.53;;;27.33;;
64938;SDS011;51453;47.738;7.420;2023-03-04T06:15:47;63.55;;;27.13;;
64938;SDS011;51453;47.738;7.420;2023-03-04T06:18:21;72.78;;;30.40;;
64938;SDS011;51453;47.738;7.420;2023-03-04T06:20:53;68.28;;;29.10;;
64938;SDS011;51453;47.738;7.420;2023-03-04T06:23:23;75.28;;;29.48;;
64938;SDS011;51453;47.738;7.420;2023-03-04T06:25:51;73.18;;;31.27;;
64938;SDS011;51453;47.738;7.420;2023-03-04T06:28:17;80.45;;;32.55;;
64938;SDS011;51453;47.738;7.420;2023-03-04T06:30:47;85.05;;;33.80;;
64938;SDS011;51453;47.738;7.420;2023-03-04T06:33:12;83.47;;;32.75;;
64938;SDS011;51453;47.738;7.420;2023-03-04T06:35:38;80.03;;;31.55;;
64938;SDS011;51453;47.738;7.420;2023-03-04T06:38:04;83.43;;;33.75;;
64938;SDS011;51453;47.738;7.420;2023-03-04T06:40:29;85.22;;;34.22;;
64938;SDS011;51453;47.738;7.420;2023-03-04T06:42:56;86.28;;;32.80;;
64938;SDS011;51453;47.738;7.420;2023-03-04T06:45:22;84.90;;;34.53;;
64938;SDS011;51453;47.738;7.420;2023-03-04T06:47:47;88.85;;;33.90;;
64938;SDS011;51453;47.738;7.420;2023-03-04T06:50:13;85.78;;;34.72;;
64938;SDS011;51453;47.738;7.420;2023-03-04T06:52:39;90.63;;;35.78;;
64938;SDS011;51453;47.738;7.420;2023-03-04T06:55:05;98.28;;;36.80;;
64938;SDS011;51453;47.738;7.420;2023-03-04T06:57:31;88.50;;;35.60;;
64938;SDS011;51453;47.738;7.420;2023-03-04T06:59:57;99.68;;;36.65;;
64938;SDS011;51453;47.738;7.420;2023-03-04T07:02:23;88.50;;;34.92;;
64938;SDS011;51453;47.738;7.420;2023-03-04T07:04:48;85.28;;;34.63;;
64938;SDS011;51453;47.738;7.420;2023-03-04T07:07:14;89.78;;;34.33;;
64938;SDS011;51453;47.738;7.420;2023-03-04T07:09:40;86.97;;;34.58;;
64938;SDS011;51453;47.738;7.420;2023-03-04T07:12:05;78.72;;;32.85;;
64938;SDS011;51453;47.738;7.420;2023-03-04T07:14:31;81.63;;;33.13;;
64938;SDS011;51453;47.738;7.420;2023-03-04T07:16:57;76.28;;;32.17;;
64938;SDS011;51453;47.738;7.420;2023-03-04T07:19:22;77.88;;;34.33;;
64938;SDS011;51453;47.738;7.420;2023-03-04T07:21:48;78.05;;;32.40;;
64938;SDS011;51453;47.738;7.420;2023-03-04T07:24:14;80.32;;;32.10;;
64938;SDS011;51453;47.738;7.420;2023-03-04T07:26:39;75.75;;;31.60;;
64938;SDS011;51453;47.738;7.420;2023-03-04T07:29:05;68.32;;;31.10;;
64938;SDS011;51453;47.738;7.420;2023-03-04T07:31:31;76.65;;;32.17;;
64938;SDS011;51453;47.738;7.420;2023-03-04T07:34:00;70.38;;;31.38;;
64938;SDS011;51453;47.738;7.420;2023-03-04T07:36:28;71.45;;;31.17;;
64938;SDS011;51453;47.738;7.420;2023-03-04T07:38:54;68.95;;;30.83;;
64938;SDS011;51453;47.738;7.420;2023-03-04T07:41:21;73.75;;;31.13;;
64938;SDS011;51453;47.738;7.420;2023-03-04T07:43:49;73.97;;;31.48;;
64938;SDS011;51453;47.738;7.420;2023-03-04T07:46:15;70.90;;;30.58;;
64938;SDS011;51453;47.738;7.420;2023-03-04T07:48:42;75.50;;;32.20;;
64938;SDS011;51453;47.738;7.420;2023-03-04T07:51:12;70.40;;;31.98;;
64938;SDS011;51453;47.738;7.420;2023-03-04T07:53:42;76.00;;;32.47;;
64938;SDS011;51453;47.738;7.420;2023-03-04T07:56:20;70.75;;;31.17;;
64938;SDS011;51453;47.738;7.420;2023-03-04T07:58:48;69.68;;;31.40;;
64938;SDS011;51453;47.738;7.420;2023-03-04T08:01:34;73.15;;;32.40;;
64938;SDS011;51453;47.738;7.420;2023-03-04T08:04:01;74.32;;;31.40;;
64938;SDS011;51453;47.738;7.420;2023-03-04T08:06:28;75.53;;;32.75;;
64938;SDS011;51453;47.738;7.420;2023-03-04T08:08:55;71.20;;;32.58;;
64938;SDS011;51453;47.738;7.420;2023-03-04T08:11:22;72.68;;;30.85;;
64938;SDS011;51453;47.738;7.420;2023-03-04T08:13:48;68.03;;;30.85;;
64938;SDS011;51453;47.738;7.420;2023-03-04T08:16:16;69.07;;;31.52;;
64938;SDS011;51453;47.738;7.420;2023-03-04T08:18:44;71.72;;;32.40;;
64938;SDS011;51453;47.738;7.420;2023-03-04T08:21:12;68.80;;;30.58;;
64938;SDS011;51453;47.738;7.420;2023-03-04T08:23:39;69.15;;;30.38;;
64938;SDS011;51453;47.738;7.420;2023-03-04T08:26:10;65.40;;;30.65;;
64938;SDS011;51453;47.738;7.420;2023-03-04T08:28:42;71.18;;;30.42;;
64938;SDS011;51453;47.738;7.420;2023-03-04T08:31:09;66.45;;;30.58;;
64938;SDS011;51453;47.738;7.420;2023-03-04T08:33:36;67.40;;;30.98;;
64938;SDS011;51453;47.738;7.420;2023-03-04T08:36:02;71.45;;;31.70;;
64938;SDS011;51453;47.738;7.420;2023-03-04T08:38:28;68.85;;;30.40;;
64938;SDS011;51453;47.738;7.420;2023-03-04T08:40:54;66.38;;;30.17;;
64938;SDS011;51453;47.738;7.420;2023-03-04T08:43:21;70.22;;;31.80;;
64938;SDS011;51453;47.738;7.420;2023-03-04T08:45:47;67.88;;;31.13;;
64938;SDS011;51453;47.738;7.420;2023-03-04T08:48:13;72.68;;;31.55;;
64938;SDS011;51453;47.738;7.420;2023-03-04T08:50:40;73.03;;;32.70;;
64938;SDS011;51453;47.738;7.420;2023-03-04T08:53:07;73.90;;;31.02;;
64938;SDS011;51453;47.738;7.420;2023-03-04T08:55:32;68.50;;;30.45;;
64938;SDS011;51453;47.738;7.420;2023-03-04T08:57:58;74.20;;;31.55;;
64938;SDS011;51453;47.738;7.420;2023-03-04T09:00:24;74.63;;;31.38;;
64938;SDS011;51453;47.738;7.420;2023-03-04T09:02:49;66.63;;;29.80;;
64938;SDS011;51453;47.738;7.420;2023-03-04T09:05:15;70.75;;;30.90;;
64938;SDS011;51453;47.738;7.420;2023-03-04T09:07:40;68.60;;;30.45;;
64938;SDS011;51453;47.738;7.420;2023-03-04T09:10:06;73.05;;;31.08;;
64938;SDS011;51453;47.738;7.420;2023-03-04T09:12:32;69.22;;;29.60;;
64938;SDS011;51453;47.738;7.420;2023-03-04T09:14:58;68.68;;;31.55;;
64938;SDS011;51453;47.738;7.420;2023-03-04T09:17:24;65.05;;;30.70;;
64938;SDS011;51453;47.738;7.420;2023-03-04T09:19:49;65.10;;;29.73;;
64938;SDS011;51453;47.738;7.420;2023-03-04T09:22:15;66.80;;;30.92;;
64938;SDS011;51453;47.738;7.420;2023-03-04T09:24:41;65.82;;;30.23;;
64938;SDS011;51453;47.738;7.420;2023-03-04T09:27:07;67.85;;;30.63;;
64938;SDS011;51453;47.738;7.420;2023-03-04T09:29:33;70.13;;;30.55;;
64938;SDS011;51453;47.738;7.420;2023-03-04T09:31:59;65.25;;;31.02;;
64938;SDS011;51453;47.738;7.420;2023-03-04T09:34:24;73.60;;;32.58;;
64938;SDS011;51453;47.738;7.420;2023-03-04T09:36:50;65.18;;;30.60;;
64938;SDS011;51453;47.738;7.420;2023-03-04T09:39:16;64.28;;;30.30;;
64938;SDS011;51453;47.738;7.420;2023-03-04T09:41:45;62.75;;;29.65;;
64938;SDS011;51453;47.738;7.420;2023-03-04T09:46:51;69.97;;;30.92;;
64938;SDS011;51453;47.738;7.420;2023-03-04T09:49:22;63.90;;;29.33;;
64938;SDS011;51453;47.738;7.420;2023-03-04T09:54:31;64.72;;;31.10;;
64938;SDS011;51453;47.738;7.420;2023-03-04T09:57:24;67.95;;;30.13;;
64938;SDS011;51453;47.738;7.420;2023-03-04T10:05:23;68.47;;;30.60;;
64938;SDS011;51453;47.738;7.420;2023-03-04T10:07:58;65.13;;;30.20;;
64938;SDS011;51453;47.738;7.420;2023-03-04T10:10:36;67.53;;;31.58;;
64938;SDS011;51453;47.738;7.420;2023-03-04T10:13:04;67.05;;;31.48;;
64938;SDS011;51453;47.738;7.420;2023-03-04T10:15:37;69.30;;;32.05;;
64938;SDS011;51453;47.738;7.420;2023-03-04T10:23:25;60.35;;;28.38;;
64938;SDS011;51453;47.738;7.420;2023-03-04T10:25:51;59.08;;;28.55;;
64938;SDS011;51453;47.738;7.420;2023-03-04T10:28:39;56.22;;;26.65;;
64938;SDS011;51453;47.738;7.420;2023-03-04T10:33:31;59.67;;;28.58;;
64938;SDS011;51453;47.738;7.420;2023-03-04T10:36:04;58.08;;;27.58;;
64938;SDS011;51453;47.738;7.420;2023-03-04T10:38:51;49.47;;;25.45;;
64938;SDS011;51453;47.738;7.420;2023-03-04T10:41:22;61.55;;;26.73;;
64938;SDS011;51453;47.738;7.420;2023-03-04T10:46:38;58.75;;;28.13;;
64938;SDS011;51453;47.738;7.420;2023-03-04T10:51:31;53.75;;;26.40;;
64938;SDS011;51453;47.738;7.420;2023-03-04T10:54:06;57.10;;;27.20;;
64938;SDS011;51453;47.738;7.420;2023-03-04T10:56:40;55.30;;;26.45;;
64938;SDS011;51453;47.738;7.420;2023-03-04T11:02:45;61.47;;;28.85;;
64938;SDS011;51453;47.738;7.420;2023-03-04T11:07:45;54.55;;;27.42;;
64938;SDS011;51453;47.738;7.420;2023-03-04T11:12:51;60.33;;;29.60;;
64938;SDS011;51453;47.738;7.420;2023-03-04T11:15:23;58.08;;;29.85;;
64938;SDS011;51453;47.738;7.420;2023-03-04T11:18:13;46.28;;;24.02;;
64938;SDS011;51453;47.738;7.420;2023-03-04T11:20:41;48.97;;;26.63;;
64938;SDS011;51453;47.738;7.420;2023-03-04T11:25:49;57.03;;;29.60;;
64938;SDS011;51453;47.738;7.420;2023-03-04T11:31:15;49.03;;;26.25;;
64938;SDS011;51453;47.738;7.420;2023-03-04T11:33:56;49.28;;;27.00;;
64938;SDS011;51453;47.738;7.420;2023-03-04T11:39:38;54.15;;;27.63;;
64938;SDS011;51453;47.738;7.420;2023-03-04T11:45:01;53.30;;;27.55;;
64938;SDS011;51453;47.738;7.420;2023-03-04T11:50:17;48.95;;;26.90;;
64938;SDS011;51453;47.738;7.420;2023-03-04T11:55:49;51.60;;;27.88;;
64938;SDS011;51453;47.738;7.420;2023-03-04T12:06:31;48.88;;;25.05;;
64938;SDS011;51453;47.738;7.420;2023-03-04T12:12:02;46.67;;;26.02;;
64938;SDS011;51453;47.738;7.420;2023-03-04T12:15:05;50.22;;;26.40;;
64938;SDS011;51453;47.738;7.420;2023-03-04T12:20:34;46.33;;;25.45;;
64938;SDS011;51453;47.738;7.420;2023-03-04T12:31:51;53.00;;;27.73;;
64938;SDS011;51453;47.738;7.420;2023-03-04T12:34:06;55.53;;;28.08;;
64938;SDS011;51453;47.738;7.420;2023-03-04T12:36:54;52.15;;;28.13;;
64938;SDS011;51453;47.738;7.420;2023-03-04T12:45:17;56.45;;;29.70;;
64938;SDS011;51453;47.738;7.420;2023-03-04T12:50:27;50.00;;;28.05;;
64938;SDS011;51453;47.738;7.420;2023-03-04T12:55:35;53.42;;;28.50;;
64938;SDS011;51453;47.738;7.420;2023-03-04T12:58:03;50.88;;;28.08;;
64938;SDS011;51453;47.738;7.420;2023-03-04T13:00:43;55.95;;;27.13;;
64938;SDS011;51453;47.738;7.420;2023-03-04T13:03:24;53.80;;;27.27;;
64938;SDS011;51453;47.738;7.420;2023-03-04T13:09:06;55.58;;;28.08;;
64938;SDS011;51453;47.738;7.420;2023-03-04T13:12:03;48.00;;;26.83;;
64938;SDS011;51453;47.738;7.420;2023-03-04T13:17:36;48.70;;;27.05;;
64938;SDS011;51453;47.738;7.420;2023-03-04T13:20:31;50.30;;;27.75;;
64938;SDS011;51453;47.738;7.420;2023-03-04T13:35:47;50.72;;;27.23;;
64938;SDS011;51453;47.738;7.420;2023-03-04T13:51:37;49.25;;;25.75;;
64938;SDS011;51453;47.738;7.420;2023-03-04T13:54:15;42.08;;;22.92;;
64938;SDS011;51453;47.738;7.420;2023-03-04T13:56:46;44.28;;;24.90;;
64938;SDS011;51453;47.738;7.420;2023-03-04T13:59:18;45.10;;;25.75;;
64938;SDS011;51453;47.738;7.420;2023-03-04T14:04:27;43.45;;;23.95;;
64938;SDS011;51453;47.738;7.420;2023-03-04T14:06:56;35.40;;;20.88;;
64938;SDS011;51453;47.738;7.420;2023-03-04T14:12:11;37.15;;;20.30;;
64938;SDS011;51453;47.738;7.420;2023-03-04T14:14:45;36.58;;;20.15;;
64938;SDS011;51453;47.738;7.420;2023-03-04T14:17:21;43.85;;;22.25;;
64938;SDS011;51453;47.738;7.420;2023-03-04T14:19:50;41.15;;;22.33;;
64938;SDS011;51453;47.738;7.420;2023-03-04T14:24:56;37.25;;;21.52;;
64938;SDS011;51453;47.738;7.420;2023-03-04T14:27:28;34.90;;;20.88;;
64938;SDS011;51453;47.738;7.420;2023-03-04T14:29:57;33.20;;;19.05;;
64938;SDS011;51453;47.738;7.420;2023-03-04T14:32:24;34.30;;;19.88;;
64938;SDS011;51453;47.738;7.420;2023-03-04T14:35:00;35.83;;;20.42;;
64938;SDS011;51453;47.738;7.420;2023-03-04T14:37:46;33.42;;;19.67;;
64938;SDS011;51453;47.738;7.420;2023-03-04T14:40:35;37.80;;;21.85;;
64938;SDS011;51453;47.738;7.420;2023-03-04T14:43:15;42.47;;;22.10;;
64938;SDS011;51453;47.738;7.420;2023-03-04T14:45:44;40.53;;;23.17;;
64938;SDS011;51453;47.738;7.420;2023-03-04T14:48:17;40.97;;;21.55;;
64938;SDS011;51453;47.738;7.420;2023-03-04T14:50:50;41.75;;;22.08;;
64938;SDS011;51453;47.738;7.420;2023-03-04T14:53:18;40.15;;;21.35;;
64938;SDS011;51453;47.738;7.420;2023-03-04T14:58:23;35.30;;;21.38;;
64938;SDS011;51453;47.738;7.420;2023-03-04T15:03:30;34.75;;;20.55;;
64938;SDS011;51453;47.738;7.420;2023-03-04T15:06:14;42.20;;;21.88;;
64938;SDS011;51453;47.738;7.420;2023-03-04T15:08:42;35.67;;;20.08;;
64938;SDS011;51453;47.738;7.420;2023-03-04T15:11:12;38.05;;;21.08;;
64938;SDS011;51453;47.738;7.420;2023-03-04T15:13:46;37.58;;;20.83;;
64938;SDS011;51453;47.738;7.420;2023-03-04T15:16:19;36.15;;;20.95;;
64938;SDS011;51453;47.738;7.420;2023-03-04T15:21:34;42.88;;;22.30;;
64938;SDS011;51453;47.738;7.420;2023-03-04T15:24:00;39.10;;;22.52;;
64938;SDS011;51453;47.738;7.420;2023-03-04T15:26:28;35.28;;;20.63;;
64938;SDS011;51453;47.738;7.420;2023-03-04T15:28:57;38.08;;;21.92;;
64938;SDS011;51453;47.738;7.420;2023-03-04T15:31:23;37.67;;;21.35;;
64938;SDS011;51453;47.738;7.420;2023-03-04T15:33:52;39.83;;;22.60;;
64938;SDS011;51453;47.738;7.420;2023-03-04T15:36:19;35.75;;;22.70;;
64938;SDS011;51453;47.738;7.420;2023-03-04T15:38:50;37.75;;;21.38;;
64938;SDS011;51453;47.738;7.420;2023-03-04T15:41:21;37.72;;;23.13;;
64938;SDS011;51453;47.738;7.420;2023-03-04T15:43:49;42.58;;;23.88;;
64938;SDS011;51453;47.738;7.420;2023-03-04T15:46:15;42.00;;;25.30;;
64938;SDS011;51453;47.738;7.420;2023-03-04T15:48:41;45.70;;;24.98;;
64938;SDS011;51453;47.738;7.420;2023-03-04T15:51:10;41.75;;;25.05;;
64938;SDS011;51453;47.738;7.420;2023-03-04T15:53:39;42.10;;;25.38;;
64938;SDS011;51453;47.738;7.420;2023-03-04T15:56:31;46.38;;;26.58;;
64938;SDS011;51453;47.738;7.420;2023-03-04T15:59:00;51.00;;;27.17;;
64938;SDS011;51453;47.738;7.420;2023-03-04T16:01:37;45.85;;;26.45;;
64938;SDS011;51453;47.738;7.420;2023-03-04T16:04:02;50.55;;;27.70;;
64938;SDS011;51453;47.738;7.420;2023-03-04T16:06:29;51.63;;;27.02;;
64938;SDS011;51453;47.738;7.420;2023-03-04T16:08:56;46.38;;;26.98;;
64938;SDS011;51453;47.738;7.420;2023-03-04T16:11:23;48.63;;;28.05;;
64938;SDS011;51453;47.738;7.420;2023-03-04T16:13:50;50.83;;;28.42;;
64938;SDS011;51453;47.738;7.420;2023-03-04T16:16:16;47.38;;;27.67;;
64938;SDS011;51453;47.738;7.420;2023-03-04T16:18:42;59.58;;;30.23;;
64938;SDS011;51453;47.738;7.420;2023-03-04T16:21:11;54.85;;;29.60;;
64938;SDS011;51453;47.738;7.420;2023-03-04T16:23:39;53.55;;;29.90;;
64938;SDS011;51453;47.738;7.420;2023-03-04T16:26:10;52.92;;;29.60;;
64938;SDS011;51453;47.738;7.420;2023-03-04T16:28:38;59.42;;;30.83;;
64938;SDS011;51453;47.738;7.420;2023-03-04T16:31:03;57.08;;;30.30;;
64938;SDS011;51453;47.738;7.420;2023-03-04T16:33:30;61.65;;;32.17;;
64938;SDS011;51453;47.738;7.420;2023-03-04T16:35:55;58.42;;;31.35;;
64938;SDS011;51453;47.738;7.420;2023-03-04T16:38:25;58.60;;;30.98;;
64938;SDS011;51453;47.738;7.420;2023-03-04T16:40:54;60.10;;;31.33;;
64938;SDS011;51453;47.738;7.420;2023-03-04T16:43:20;59.88;;;30.77;;
64938;SDS011;51453;47.738;7.420;2023-03-04T16:45:46;57.20;;;31.67;;